默认 日期 大小 文件数 浏览量 最新下载 xml
400-磁力链接相关资源由用户搜索指令自动获取,结果来源于网络,本站不存储任何资料,亦不承担任何责任,请于24小时内删除,搜索到8477个磁力,显示前4000条数据,用时4ms。
    ... .zip.399": 4290772992, "E.zip.400": 4290772992, "_____padding_file_0_如果您 ...
创建时间: 2021-01-05 15:22:45 大小:80 GB 文件数量:39 热度:3 最近下载:2025-01-06 19:52:08
    {"DANDY-400[Uncensored] .mp4": 9264197964}
创建时间: 2021-01-05 17:18:18 大小:8.63 GB 文件数量:1 热度:99 最近下载:2025-08-12 04:55:01
    ... - SexInSex! Board.URL": 153}, "DANDY-400-nyap2p.com.mp4": 6494283653, "澳 ...
创建时间: 2021-01-06 02:05:23 大小:6.19 GB 文件数量:34 热度:25 最近下载:2025-10-10 06:27:04
    {"Downloaded from THEPIRATEBAY.ORG.txt": 40, "The 400 Blows (1959) 1080p.BluRay.x264.Full 553MB.exe": 585189294}
创建时间: 2021-01-06 02:11:21 大小:558.08 MB 文件数量:2 热度:3 最近下载:2025-01-10 12:52:04
    {"Thumbs.db": 9216, "LEIAME.nfo": 161, "400.Contra.1.Uma.História.Do.Crime.Organizado.DVDRip.XviD-HyperX-[semlimites.org].avi": 841756672}
创建时间: 2021-01-06 06:38:48 大小:802.77 MB 文件数量:3 热度:3 最近下载:2025-01-02 04:46:06
    {"Downloaded from THEPIRATEBAY.ORG.txt": 40, "The 400 Blows (1959) 1080p.BluRay.x264.Full 553MB.exe": 585189294}
创建时间: 2021-01-07 04:42:59 大小:558.08 MB 文件数量:2 热度:3 最近下载:2025-02-03 21:56:03
    ... 值美女主播400元请网友来 ...
创建时间: 2021-01-07 11:09:06 大小:149 MB 文件数量:24 热度:17 最近下载:2025-08-06 07:33:05
    {"安卓二维码.png": 23947, "最新地址获取.txt": 462, "有趣的小视频.mp4": 64435696, "按摩店里极品美少妇花了400多块钱拿下 逼被舔到说不要.mp4": 363077223}
创建时间: 2021-01-08 16:47:56 大小:407.73 MB 文件数量:4 热度:109 最近下载:2025-08-06 18:56:04
    ... , "Gęba.jpg": 80775, "07. 400 lat.wma": 23735619, "Fallen Angel ... .T.A. i Paprika Korps - 400 lat (2013) [WMA Lossless] [Fallen ... .T.A. i Paprika Korps - 400 lat (2013) [WMA Lossless] [Fallen ... .T.A. i Paprika Korps - 400 lat (2013) [WMA Lossless] [Fallen ...
创建时间: 2021-01-10 04:46:05 大小:242.14 MB 文件数量:16 热度:7 最近下载:2025-10-15 07:34:02
    ... , "Gęba.jpg": 80775, "07. 400 lat.mp3": 8131574, "Fallen Angel ... .T.A. i Paprika Korps - 400 lat (2013) [mp3@320] [Fallen ... .T.A. i Paprika Korps - 400 lat (2013) [mp3@320] [Fallen ... .T.A. i Paprika Korps - 400 lat (2013) [mp3@320] [Fallen ...
创建时间: 2021-01-10 05:42:44 大小:85.75 MB 文件数量:16 热度:3 最近下载:2025-02-07 08:08:09
    {"Info.nfo": 1201107, "data.dat": 6913704, "Readme!.txt": 3218, "THEPIRATEBAY.ORG.url": 115, "The.Walking.Dead.(Episode 1-5).and.400 Days.Repack.R.G.Catalyst.exe": 1881600}
创建时间: 2021-01-10 10:45:03 大小:9.54 MB 文件数量:5 热度:13 最近下载:2025-06-26 00:51:02
    {"Info.nfo": 1201107, "data.dat": 6913704, "Readme!.txt": 3218, "THEPIRATEBAY.ORG.url": 115, "The.Walking.Dead.(Episode 1-5).and.400 Days.Repack.R.G.Catalyst.exe": 1881600}
创建时间: 2021-01-10 13:52:16 大小:9.54 MB 文件数量:5 热度:7 最近下载:2025-06-29 21:51:01
    {"[TSKS][Dream.For.400.Years][002][KO_CN].rmvb": 298181981, " ...
创建时间: 2021-01-11 01:38:29 大小:285 MB 文件数量:7 热度:2 最近下载:2025-02-04 19:14:02
    {"gvg-400.mp4": 1504377500, "xue0117@草榴社区@最新地址.URL": 74, "xue0117@草榴社区@最新地址.lnk": 1013}
创建时间: 2021-01-11 17:24:26 大小:1.4 GB 文件数量:3 热度:25 最近下载:2025-09-14 00:21:02
    {"Downloaded from THEPIRATEBAY.ORG.txt": 40, "The 400 Blows (1959) 1080p.BluRay.x264.Full 553MB.exe": 585189294}
创建时间: 2021-01-12 09:33:23 大小:558.08 MB 文件数量:2 热度:3 最近下载:2025-01-04 17:27:13
    {"Encyclopedia of Assassinations - More than 400 Infamous Attacks that Changed the Course of History.epub": 7312611}
创建时间: 2021-01-13 05:43:32 大小:6.97 MB 文件数量:1 热度:4 最近下载:2025-02-15 18:12:03
    {"Bebe.mpg": 238179682, "Gigi.mpg": 274943380, "Gina.mpg": 382321898, "Nancy.mpg": 246612024, "Lady D.mpg": 389138332, "Monica.mpg": 260921348, "Sassy .mp4": 140448493, "Amy Joy.flv": 162332062, "Houston.mp4": 137641021, "No name.mp4": 241237819, "Sabrina. ...
创建时间: 2021-01-15 05:52:06 大小:178.26 GB 文件数量:400 热度:3 最近下载:2025-01-09 13:08:07
    ... .jpg": 137232, "big2048.com@ZEX-400.mp4": 5669412638, "凤凰娛 ...
创建时间: 2021-01-15 15:36:49 大小:5.3 GB 文件数量:17 热度:92 最近下载:2025-08-06 08:33:05
    {"More Download Stuff.txt": 143, "tracked_by_h33t_com.txt": 193, "400 Refreshing Punch Recipes.rar": 527267, "Torrent downloaded from AhaShare.com.txt": 59, "Torrent downloaded from Demonoid.com.txt": 47}
创建时间: 2021-01-16 04:46:31 大小:515.34 KB 文件数量:5 热度:2 最近下载:2025-01-21 00:43:04
    {"400.Days.2015.TRUEFRENCH.SUBFORCED.DVDRIP.XVid-LYS.avi": 737976320, "400.Days.2015.TRUEFRENCH.SUBFORCED.DVDRIP.XVid-LYS.nfo": 3351}
创建时间: 2021-01-17 04:26:50 大小:703.79 MB 文件数量:2 热度:2 最近下载:2025-01-03 06:55:03